createdAt,value
2022-07-25T00:03:21.926Z,98592.94
2022-07-25T00:07:23.747Z,98590.63
2022-07-25T00:11:25.598Z,98593.28
2022-07-25T00:15:27.570Z,98588.50
2022-07-25T00:19:29.474Z,98588.03
2022-07-25T00:23:32.021Z,98584.78
2022-07-25T00:27:33.850Z,98582.84
2022-07-25T00:31:35.807Z,98573.47
2022-07-25T00:35:37.952Z,98574.97
2022-07-25T00:39:39.767Z,98579.25
2022-07-25T00:43:45.546Z,98575.53
2022-07-25T00:47:47.483Z,98575.31
2022-07-25T00:51:49.905Z,98573.22
2022-07-25T00:55:52.404Z,98572.56
2022-07-25T00:59:54.450Z,98569.53
2022-07-25T01:03:56.322Z,98571.66
2022-07-25T01:07:58.453Z,98568.06
2022-07-25T01:12:00.541Z,98559.59
2022-07-25T01:16:02.644Z,98562.31
2022-07-25T01:20:06.687Z,98569.97
2022-07-25T01:24:09.552Z,98569.41
2022-07-25T01:28:11.995Z,98564.84
2022-07-25T01:32:14.077Z,98563.00
2022-07-25T01:36:16.148Z,98554.78
2022-07-25T01:40:18.038Z,98556.25
2022-07-25T01:44:19.947Z,98556.81
2022-07-25T01:48:22.088Z,98559.75
2022-07-25T01:52:23.950Z,98558.94
2022-07-25T01:56:25.781Z,98564.13
2022-07-25T02:00:27.637Z,98563.56
2022-07-25T02:04:29.610Z,98558.66
2022-07-25T02:08:35.117Z,98544.09
2022-07-25T02:12:38.707Z,98550.53
2022-07-25T02:16:40.633Z,98551.31
2022-07-25T02:20:43.067Z,98556.16
2022-07-25T02:24:46.071Z,98555.44
2022-07-25T02:28:49.767Z,98553.63
2022-07-25T02:32:51.881Z,98550.94
2022-07-25T02:36:54.970Z,98550.25
2022-07-25T02:40:56.901Z,98550.75
2022-07-25T02:50:26.828Z,98552.56
2022-07-25T02:54:29.160Z,98543.81
2022-07-25T02:58:33.497Z,98544.44
2022-07-25T03:02:36.501Z,98536.81
2022-07-25T03:06:40.567Z,98544.25
2022-07-25T03:10:42.933Z,98549.78
2022-07-25T03:14:44.848Z,98550.13
2022-07-25T03:18:46.983Z,98560.22
2022-07-25T03:22:49.189Z,98556.56
2022-07-25T03:26:51.178Z,98559.22
2022-07-25T03:30:53.081Z,98564.47
2022-07-25T03:34:54.950Z,98568.63
2022-07-25T03:38:57.760Z,98569.22
2022-07-25T03:42:59.595Z,98562.44
2022-07-25T03:47:01.498Z,98571.56
2022-07-25T03:51:06.850Z,98565.16
2022-07-25T03:55:10.868Z,98571.13
2022-07-25T03:59:14.109Z,98572.06
2022-07-25T04:03:15.965Z,98571.69
2022-07-25T04:07:18.050Z,98569.28
2022-07-25T04:11:19.986Z,98574.34
2022-07-25T04:15:22.067Z,98579.00
2022-07-25T04:19:28.837Z,98571.38
2022-07-25T04:23:31.564Z,98580.41
2022-07-25T04:27:33.460Z,98573.84
2022-07-25T04:31:35.455Z,98578.59
2022-07-25T04:35:37.377Z,98577.75
2022-07-25T04:39:39.391Z,98577.91
2022-07-25T04:43:46.360Z,98570.81
2022-07-25T04:47:50.305Z,98578.72
2022-07-25T04:51:52.123Z,98569.91
2022-07-25T04:55:53.982Z,98575.66
2022-07-25T04:59:56.974Z,98582.97
2022-07-25T05:03:58.897Z,98579.06
2022-07-25T05:08:01.160Z,98582.84
2022-07-25T05:12:03.474Z,98586.69
2022-07-25T05:20:43.010Z,98570.97
2022-07-25T05:24:44.888Z,98574.94
2022-07-25T05:28:46.742Z,98578.00
2022-07-25T05:32:48.598Z,98572.72
2022-07-25T05:36:50.711Z,98564.34
2022-07-25T05:40:52.695Z,98564.28
2022-07-25T05:44:55.121Z,98566.03
2022-07-25T05:48:56.974Z,98570.13
2022-07-25T05:52:58.842Z,98572.13
2022-07-25T05:57:01.363Z,98563.50
2022-07-25T06:01:03.895Z,98564.22
2022-07-25T06:05:05.783Z,98561.13
2022-07-25T06:09:08.633Z,98562.50
2022-07-25T06:13:10.959Z,98556.75
2022-07-25T06:17:12.810Z,98554.78
2022-07-25T06:21:14.814Z,98554.13
2022-07-25T06:25:17.115Z,98552.31
2022-07-25T06:29:19.036Z,98554.50
2022-07-25T06:33:20.914Z,98546.53
2022-07-25T06:37:22.828Z,98543.53
2022-07-25T06:41:24.897Z,98543.69
2022-07-25T06:45:26.814Z,98540.31
2022-07-25T06:49:28.671Z,98537.88
2022-07-25T06:53:30.681Z,98530.88
2022-07-25T06:57:32.621Z,98526.69
2022-07-25T07:01:34.532Z,98526.91
2022-07-25T07:05:37.255Z,98528.63
2022-07-25T07:09:39.117Z,98522.78
2022-07-25T07:13:41.116Z,98525.31
2022-07-25T07:17:43.601Z,98528.91
2022-07-25T07:21:45.811Z,98515.41
2022-07-25T07:25:48.743Z,98519.09
2022-07-25T07:29:50.740Z,98515.41
2022-07-25T07:33:52.816Z,98520.00
2022-07-25T07:37:56.757Z,98517.41
2022-07-25T07:41:58.786Z,98518.41
2022-07-25T07:46:01.650Z,98513.75
2022-07-25T07:50:04.182Z,98513.53
2022-07-25T07:54:27.814Z,98508.34
2022-07-25T07:58:29.888Z,98508.50
2022-07-25T08:02:32.020Z,98507.06
2022-07-25T08:06:34.134Z,98502.69
2022-07-25T08:10:37.398Z,98502.72
2022-07-25T08:14:39.285Z,98506.78
2022-07-25T08:18:41.305Z,98501.84
2022-07-25T08:22:44.591Z,98502.34
2022-07-25T08:26:46.483Z,98496.25
2022-07-25T08:30:48.489Z,98505.47
2022-07-25T08:34:50.392Z,98499.78
2022-07-25T08:38:52.322Z,98497.50
2022-07-25T08:42:58.546Z,98491.03
2022-07-25T08:47:00.579Z,98494.19
2022-07-25T08:51:02.659Z,98498.56
2022-07-25T08:55:07.143Z,98493.91
2022-07-25T08:59:10.222Z,98493.13
2022-07-25T09:03:12.788Z,98484.53
2022-07-25T09:07:14.742Z,98484.59
2022-07-25T09:11:25.710Z,98490.47
2022-07-25T09:15:31.006Z,98479.09
2022-07-25T09:19:33.253Z,98487.75
2022-07-25T09:23:36.529Z,98479.13
2022-07-25T09:27:38.452Z,98466.59
2022-07-25T09:31:41.885Z,98468.50
2022-07-25T09:35:44.000Z,98461.81
2022-07-25T09:39:48.322Z,98471.19
2022-07-25T09:43:50.870Z,98467.25
2022-07-25T09:47:56.685Z,98468.44
2022-07-25T09:51:58.807Z,98446.81
2022-07-25T09:56:00.890Z,98452.28
2022-07-25T10:00:04.067Z,98444.00
2022-07-25T10:04:21.817Z,98439.94
2022-07-25T10:08:24.185Z,98430.13
2022-07-25T10:12:26.195Z,98429.25
2022-07-25T10:16:28.107Z,98424.34
2022-07-25T10:20:30.111Z,98421.19
2022-07-25T10:24:35.707Z,98419.53
2022-07-25T10:28:42.407Z,98415.59
2022-07-25T10:32:49.588Z,98408.69
2022-07-25T10:36:57.235Z,98401.41
2022-07-25T10:41:04.361Z,98393.63
2022-07-25T10:45:09.529Z,98385.94
2022-07-25T10:49:31.170Z,98382.22
2022-07-25T10:53:38.347Z,98380.91
2022-07-25T10:57:55.022Z,98370.97
2022-07-25T11:02:03.209Z,98366.09
2022-07-25T11:06:05.414Z,98351.28
2022-07-25T11:10:07.552Z,98349.53
2022-07-25T11:14:16.499Z,98352.34
2022-07-25T11:18:30.551Z,98346.00
2022-07-25T11:22:40.060Z,98348.31
2022-07-25T11:26:46.099Z,98344.47
2022-07-25T11:30:48.022Z,98339.75
2022-07-25T11:34:53.003Z,98341.66
2022-07-25T11:38:55.118Z,98329.31
2022-07-25T11:42:59.636Z,98318.34
2022-07-25T11:47:03.083Z,98319.56
2022-07-25T11:51:17.980Z,98321.66
2022-07-25T11:55:28.506Z,98310.06
2022-07-25T11:59:30.453Z,98308.03
2022-07-25T12:03:37.641Z,98308.06
2022-07-25T12:07:42.013Z,98298.06
2022-07-25T12:11:44.430Z,98295.00
2022-07-25T12:15:46.359Z,98284.94
2022-07-25T12:19:48.517Z,98277.75
2022-07-25T12:23:50.491Z,98273.59
2022-07-25T12:27:52.474Z,98269.91
2022-07-25T12:31:54.371Z,98261.72
2022-07-25T12:35:56.549Z,98254.41
2022-07-25T12:39:58.557Z,98273.56
2022-07-25T12:44:02.555Z,98265.91
2022-07-25T12:48:05.263Z,98252.22
2022-07-25T12:52:25.725Z,98250.13
2022-07-25T12:56:27.758Z,98239.56
2022-07-25T13:00:30.010Z,98214.22
2022-07-25T13:04:32.324Z,98219.28
2022-07-25T13:09:24.668Z,98215.09
2022-07-25T13:13:27.071Z,98212.75
2022-07-25T13:17:29.064Z,98207.69
2022-07-25T13:21:33.795Z,98189.50
2022-07-25T13:25:36.507Z,98186.94
2022-07-25T13:29:38.438Z,98183.59
2022-07-25T13:33:41.050Z,98181.38
2022-07-25T13:37:42.985Z,98175.06
2022-07-25T13:41:45.059Z,98168.03
2022-07-25T13:45:47.170Z,98159.91
2022-07-25T13:49:49.556Z,98156.16
2022-07-25T13:53:51.975Z,98147.81
2022-07-25T13:57:54.068Z,98144.81
2022-07-25T14:01:56.298Z,98141.75
2022-07-25T14:05:58.409Z,98149.47
2022-07-25T14:10:00.963Z,98143.13
2022-07-25T14:14:03.093Z,98143.28
2022-07-25T14:18:05.811Z,98139.56
2022-07-25T14:22:08.367Z,98141.53
2022-07-25T14:26:10.346Z,98127.81
2022-07-25T14:30:12.654Z,98119.25
2022-07-25T14:34:15.742Z,98124.53
2022-07-25T14:38:17.666Z,98111.75
2022-07-25T14:42:19.745Z,98115.59
2022-07-25T14:46:21.790Z,98116.69
2022-07-25T14:50:24.329Z,98118.88
2022-07-25T14:54:28.426Z,98127.28
2022-07-25T14:58:30.720Z,98117.16
2022-07-25T15:02:32.703Z,98116.16
2022-07-25T15:06:34.712Z,98112.88
2022-07-25T15:10:36.728Z,98100.38
2022-07-25T15:14:38.697Z,98094.63
2022-07-25T15:19:05.298Z,98092.22
2022-07-25T15:23:03.013Z,98088.69
2022-07-25T15:27:05.937Z,98092.06
2022-07-25T15:31:08.197Z,98091.94
2022-07-25T15:35:10.453Z,98090.38
2022-07-25T15:39:12.549Z,98085.56
2022-07-25T15:43:35.117Z,98095.38
2022-07-25T15:47:40.581Z,98092.22
2022-07-25T15:51:42.787Z,98091.41
2022-07-25T15:55:44.844Z,98095.41
2022-07-25T15:59:46.887Z,98099.31
2022-07-25T16:03:49.006Z,98098.28
2022-07-25T16:07:51.079Z,98099.50
2022-07-25T16:11:53.010Z,98091.03
2022-07-25T16:15:55.966Z,98085.09
2022-07-25T16:19:58.459Z,98097.81
2022-07-25T16:24:00.530Z,98091.50
2022-07-25T16:28:02.664Z,98097.34
2022-07-25T16:32:05.495Z,98110.59
2022-07-25T16:36:07.699Z,98105.97
2022-07-25T16:40:09.776Z,98106.09
2022-07-25T16:44:12.065Z,98093.34
2022-07-25T16:48:14.141Z,98103.00
2022-07-25T16:52:16.381Z,98099.16
2022-07-25T16:56:18.630Z,98102.72
2022-07-25T17:00:20.980Z,98099.78
2022-07-25T17:04:23.045Z,98101.94
2022-07-25T17:08:26.375Z,98107.97
2022-07-25T17:12:29.034Z,98099.53
2022-07-25T17:16:31.775Z,98092.53
2022-07-25T17:20:33.958Z,98088.59
2022-07-25T17:24:37.862Z,98090.44
2022-07-25T17:28:40.044Z,98091.66
2022-07-25T17:32:42.101Z,98094.41
2022-07-25T17:36:44.330Z,98096.75
2022-07-25T17:40:46.345Z,98094.84
2022-07-25T17:44:49.330Z,98100.72
2022-07-25T17:48:51.459Z,98093.56
2022-07-25T17:52:54.487Z,98086.78
2022-07-25T17:57:03.057Z,98093.00
2022-07-25T18:01:10.693Z,98096.63
2022-07-25T18:05:13.957Z,98102.06
2022-07-25T18:09:16.366Z,98096.97
2022-07-25T18:13:19.596Z,98094.03
2022-07-25T18:17:22.073Z,98100.41
2022-07-25T18:21:24.551Z,98098.41
2022-07-25T18:25:26.501Z,98093.00
2022-07-25T18:29:28.456Z,98093.09
2022-07-25T18:33:34.395Z,98097.34
2022-07-25T18:37:37.077Z,98092.13
2022-07-25T18:41:39.470Z,98093.75
2022-07-25T18:45:46.738Z,98098.66
2022-07-25T18:49:50.374Z,98099.69
2022-07-25T18:54:03.791Z,98104.56
2022-07-25T18:58:07.835Z,98104.38
2022-07-25T19:02:10.526Z,98111.59
2022-07-25T19:06:20.599Z,98119.44
2022-07-25T19:10:24.346Z,98123.00
2022-07-25T19:14:28.633Z,98125.38
2022-07-25T19:18:30.830Z,98129.28
2022-07-25T19:22:42.768Z,98130.16
2022-07-25T19:26:48.068Z,98143.97
2022-07-25T19:30:55.119Z,98148.69
2022-07-25T19:34:57.524Z,98147.53
2022-07-25T19:38:59.553Z,98144.38
2022-07-25T19:43:05.181Z,98153.44
2022-07-25T19:47:11.643Z,98155.41
2022-07-25T19:51:17.870Z,98167.97
2022-07-25T19:55:22.536Z,98168.78
2022-07-25T19:59:25.691Z,98171.13
2022-07-25T20:03:27.784Z,98173.47
2022-07-25T20:07:29.967Z,98195.38
2022-07-25T20:11:44.440Z,98193.44
2022-07-25T20:16:06.205Z,98198.13
2022-07-25T20:20:12.476Z,98198.13
2022-07-25T20:24:20.889Z,98214.91
2022-07-25T20:28:27.428Z,98216.88
2022-07-25T20:32:31.212Z,98219.59
2022-07-25T20:36:35.507Z,98224.69
2022-07-25T20:40:49.520Z,98227.78
2022-07-25T20:44:53.127Z,98241.44
2022-07-25T20:48:55.164Z,98246.50
2022-07-25T20:52:57.901Z,98248.38
2022-07-25T20:57:00.105Z,98263.19
2022-07-25T21:01:03.320Z,98274.47
2022-07-25T21:05:05.539Z,98276.69
2022-07-25T21:09:08.696Z,98273.97
2022-07-25T21:13:11.266Z,98267.66
2022-07-25T21:17:13.992Z,98271.56
2022-07-25T21:21:16.767Z,98283.66
2022-07-25T21:25:18.894Z,98276.91
2022-07-25T21:29:20.877Z,98263.59
2022-07-25T21:33:25.430Z,98266.69
2022-07-25T21:37:27.717Z,98265.78
2022-07-25T21:41:30.248Z,98264.22
2022-07-25T21:45:32.188Z,98271.88
2022-07-25T21:49:54.452Z,98267.13
2022-07-25T21:53:59.075Z,98283.03
2022-07-25T21:58:01.259Z,98286.09
2022-07-25T22:02:04.788Z,98289.53
2022-07-25T22:06:06.893Z,98287.19
2022-07-25T22:10:10.420Z,98287.84
2022-07-25T22:14:12.386Z,98293.47
2022-07-25T22:18:14.329Z,98291.59
2022-07-25T22:22:16.300Z,98296.97
2022-07-25T22:26:20.279Z,98301.78
2022-07-25T22:30:22.288Z,98300.44
2022-07-25T22:34:24.100Z,98298.44
2022-07-25T22:38:33.298Z,98301.53
2022-07-25T22:42:42.713Z,98286.59
2022-07-25T22:46:44.591Z,98288.69
2022-07-25T22:50:46.689Z,98287.06
2022-07-25T22:54:50.455Z,98282.78
2022-07-25T22:58:52.643Z,98285.41
2022-07-25T23:02:57.615Z,98291.28
2022-07-25T23:07:00.904Z,98291.25
2022-07-25T23:11:03.655Z,98284.91
2022-07-25T23:15:05.879Z,98282.38
2022-07-25T23:19:08.185Z,98278.16
2022-07-25T23:23:10.992Z,98282.53
2022-07-25T23:27:14.321Z,98274.16
2022-07-25T23:31:16.234Z,98273.09
2022-07-25T23:35:20.793Z,98275.31
2022-07-25T23:39:22.686Z,98272.44
2022-07-25T23:43:48.289Z,98266.56
2022-07-25T23:47:47.358Z,98250.56
2022-07-25T23:51:50.712Z,98251.59
2022-07-25T23:55:52.556Z,98249.19
2022-07-25T23:59:54.663Z,98255.31
